createdAt,value
2018-07-30T00:01:25.123Z,23.40
2018-07-30T00:03:53.728Z,23.40
2018-07-30T00:06:22.374Z,23.30
2018-07-30T00:08:50.976Z,23.30
2018-07-30T00:11:19.552Z,23.20
2018-07-30T00:13:48.156Z,23.30
2018-07-30T00:16:16.744Z,23.20
2018-07-30T00:18:45.340Z,23.20
2018-07-30T00:21:13.928Z,23.20
2018-07-30T00:23:42.539Z,23.30
2018-07-30T00:26:11.134Z,23.30
2018-07-30T00:28:39.708Z,23.20
2018-07-30T00:31:08.321Z,23.30
2018-07-30T00:33:36.945Z,23.20
2018-07-30T00:36:05.517Z,23.20
2018-07-30T00:38:34.144Z,23.20
2018-07-30T00:41:02.735Z,23.20
2018-07-30T00:43:31.363Z,23.30
2018-07-30T00:45:59.985Z,23.30
2018-07-30T00:48:28.596Z,23.30
2018-07-30T00:50:57.250Z,23.30
2018-07-30T00:53:25.856Z,23.30
2018-07-30T00:55:54.473Z,23.30
2018-07-30T00:58:23.120Z,23.30
2018-07-30T01:00:51.764Z,23.30
2018-07-30T01:03:20.320Z,23.30
2018-07-30T01:05:48.959Z,23.30
2018-07-30T01:08:17.584Z,23.30
2018-07-30T01:10:46.176Z,23.30
2018-07-30T01:13:14.740Z,23.20
2018-07-30T01:15:43.396Z,23.20
2018-07-30T01:20:40.365Z,23.20
2018-07-30T01:23:09.169Z,23.20
2018-07-30T01:25:43.559Z,23.20
2018-07-30T01:28:12.133Z,23.20
2018-07-30T01:30:40.711Z,23.10
2018-07-30T01:33:09.318Z,23.10
2018-07-30T01:35:37.956Z,23.10
2018-07-30T01:38:06.695Z,23.10
2018-07-30T01:40:35.267Z,23.10
2018-07-30T01:43:03.901Z,23.10
2018-07-30T01:45:32.500Z,23.10
2018-07-30T01:50:29.308Z,23.10
2018-07-30T01:52:57.906Z,23.10
2018-07-30T01:55:26.592Z,23.10
2018-07-30T01:57:55.165Z,23.10
2018-07-30T02:00:23.744Z,23.10
2018-07-30T02:02:52.373Z,23.10
2018-07-30T02:05:20.983Z,23.10
2018-07-30T02:07:49.624Z,23.10
2018-07-30T02:10:18.214Z,23.00
2018-07-30T02:12:46.822Z,23.00
2018-07-30T02:15:16.553Z,22.90
2018-07-30T02:17:45.430Z,22.90
2018-07-30T02:20:14.025Z,22.80
2018-07-30T02:22:42.718Z,22.80
2018-07-30T02:25:11.288Z,22.80
2018-07-30T02:27:39.873Z,22.70
2018-07-30T02:30:09.506Z,22.70
2018-07-30T02:32:38.156Z,22.60
2018-07-30T02:35:08.259Z,22.60
2018-07-30T02:37:36.903Z,22.60
2018-07-30T02:40:06.081Z,22.50
2018-07-30T02:42:34.692Z,22.50
2018-07-30T02:45:03.364Z,22.40
2018-07-30T02:47:31.933Z,22.40
2018-07-30T02:50:00.516Z,22.40
2018-07-30T02:52:29.216Z,22.30
2018-07-30T02:54:57.786Z,22.30
2018-07-30T02:57:26.500Z,22.30
2018-07-30T02:59:55.082Z,22.30
2018-07-30T03:02:23.662Z,22.30
2018-07-30T03:04:52.266Z,22.30
2018-07-30T03:07:20.851Z,22.30
2018-07-30T03:09:49.415Z,22.30
2018-07-30T03:12:18.013Z,22.30
2018-07-30T03:14:46.659Z,22.30
2018-07-30T03:19:43.477Z,22.30
2018-07-30T03:22:12.224Z,22.30
2018-07-30T03:24:40.784Z,22.30
2018-07-30T03:27:09.344Z,22.30
2018-07-30T03:29:37.889Z,22.30
2018-07-30T03:32:06.544Z,22.30
2018-07-30T03:34:35.126Z,22.30
2018-07-30T03:37:03.752Z,22.30
2018-07-30T03:39:32.314Z,22.30
2018-07-30T03:42:00.885Z,22.30
2018-07-30T03:44:29.470Z,22.40
2018-07-30T03:46:58.004Z,22.30
2018-07-30T03:49:26.630Z,22.40
2018-07-30T03:51:55.193Z,22.40
2018-07-30T03:54:23.810Z,22.40
2018-07-30T03:56:52.353Z,22.40
2018-07-30T03:59:20.985Z,22.40
2018-07-30T04:01:49.628Z,22.40
2018-07-30T04:04:18.209Z,22.40
2018-07-30T04:06:46.801Z,22.30
2018-07-30T04:09:15.437Z,22.30
2018-07-30T04:11:44.048Z,22.30
2018-07-30T04:14:12.650Z,22.30
2018-07-30T04:16:46.563Z,22.20
2018-07-30T04:19:15.215Z,22.20
2018-07-30T04:21:43.880Z,22.10
2018-07-30T04:24:12.428Z,22.10
2018-07-30T04:29:09.336Z,22.00
2018-07-30T04:31:37.947Z,21.90
2018-07-30T04:34:06.601Z,21.90
2018-07-30T04:36:35.353Z,21.90
2018-07-30T04:39:05.830Z,21.80
2018-07-30T04:41:34.466Z,21.80
2018-07-30T04:44:03.146Z,21.80
2018-07-30T04:46:31.752Z,21.90
2018-07-30T04:49:01.243Z,21.90
2018-07-30T04:51:29.865Z,22.00
2018-07-30T04:53:58.618Z,22.00
2018-07-30T04:56:27.251Z,22.00
2018-07-30T04:58:55.981Z,22.10
2018-07-30T05:01:24.570Z,22.10
2018-07-30T05:03:53.292Z,22.10
2018-07-30T05:06:21.938Z,22.20
2018-07-30T05:08:50.520Z,22.20
2018-07-30T05:11:19.655Z,22.20
2018-07-30T05:13:48.709Z,22.30
2018-07-30T05:16:17.318Z,22.30
2018-07-30T05:18:46.069Z,22.40
2018-07-30T05:21:14.711Z,22.50
2018-07-30T05:23:43.323Z,22.60
2018-07-30T05:26:11.958Z,22.70
2018-07-30T05:31:08.899Z,22.90
2018-07-30T05:33:37.528Z,23.00
2018-07-30T05:36:06.111Z,23.10
2018-07-30T05:38:34.727Z,23.20
2018-07-30T05:41:03.364Z,23.20
2018-07-30T05:43:31.973Z,23.20
2018-07-30T05:46:00.530Z,23.20
2018-07-30T05:48:29.142Z,23.20
2018-07-30T05:50:57.768Z,23.30
2018-07-30T05:53:26.406Z,23.30
2018-07-30T05:55:55.049Z,23.30
2018-07-30T05:58:23.720Z,23.30
2018-07-30T06:00:52.381Z,23.40
2018-07-30T06:03:20.990Z,23.40
2018-07-30T06:05:49.641Z,23.30
2018-07-30T06:08:18.229Z,23.30
2018-07-30T06:10:46.847Z,23.20
2018-07-30T06:13:15.454Z,23.30
2018-07-30T06:15:44.119Z,23.30
2018-07-30T06:20:41.042Z,23.50
2018-07-30T06:23:09.764Z,23.60
2018-07-30T06:25:38.352Z,23.70
2018-07-30T06:28:07.014Z,23.80
2018-07-30T06:30:35.666Z,23.90
2018-07-30T06:33:04.390Z,24.00
2018-07-30T06:35:33.040Z,24.10
2018-07-30T06:38:01.659Z,24.20
2018-07-30T06:40:30.368Z,24.40
2018-07-30T06:42:59.084Z,24.40
2018-07-30T06:45:27.740Z,24.50
2018-07-30T06:47:56.404Z,24.50
2018-07-30T06:50:24.998Z,24.70
2018-07-30T06:52:53.617Z,24.80
2018-07-30T06:55:22.189Z,24.90
2018-07-30T06:57:50.850Z,25.10
2018-07-30T07:00:19.639Z,25.20
2018-07-30T07:02:48.304Z,25.30
2018-07-30T07:05:16.935Z,25.40
2018-07-30T07:07:45.958Z,25.40
2018-07-30T07:10:14.614Z,25.40
2018-07-30T07:12:43.270Z,25.40
2018-07-30T07:15:14.180Z,25.40
2018-07-30T07:17:43.769Z,25.40
2018-07-30T07:20:12.411Z,25.40
2018-07-30T07:22:41.049Z,25.50
2018-07-30T07:25:09.713Z,25.60
2018-07-30T07:27:38.345Z,25.80
2018-07-30T07:30:08.093Z,25.80
2018-07-30T07:32:36.745Z,25.90
2018-07-30T07:35:05.854Z,26.00
2018-07-30T07:37:34.548Z,26.00
2018-07-30T07:40:03.202Z,26.10
2018-07-30T07:42:31.885Z,26.30
2018-07-30T07:45:00.574Z,26.30
2018-07-30T07:47:29.081Z,26.30
2018-07-30T07:49:57.837Z,26.30
2018-07-30T07:52:26.506Z,26.30
2018-07-30T07:54:55.112Z,26.50
2018-07-30T07:57:24.009Z,26.60
2018-07-30T07:59:52.741Z,26.80
2018-07-30T08:02:21.391Z,27.00
2018-07-30T08:04:50.018Z,27.00
2018-07-30T08:07:18.715Z,27.00
2018-07-30T08:09:47.421Z,26.90
2018-07-30T08:12:16.081Z,27.00
2018-07-30T08:14:44.685Z,27.10
2018-07-30T08:17:13.361Z,27.30
2018-07-30T08:19:41.999Z,27.30
2018-07-30T08:22:10.712Z,27.40
2018-07-30T08:24:39.312Z,27.40
2018-07-30T08:27:08.021Z,27.60
2018-07-30T08:29:37.128Z,27.80
2018-07-30T08:32:05.845Z,27.80
2018-07-30T08:34:34.548Z,27.70
2018-07-30T08:37:03.231Z,27.70
2018-07-30T08:42:00.487Z,27.80
2018-07-30T08:44:29.138Z,27.80
2018-07-30T08:46:58.399Z,27.90
2018-07-30T08:49:27.010Z,27.80
2018-07-30T08:51:55.649Z,27.80
2018-07-30T08:54:24.208Z,27.70
2018-07-30T08:56:52.874Z,27.60
2018-07-30T08:59:21.494Z,27.60
2018-07-30T09:01:50.142Z,27.60
2018-07-30T09:06:47.008Z,27.80
2018-07-30T09:09:15.645Z,27.90
2018-07-30T09:11:44.266Z,28.00
2018-07-30T09:14:12.885Z,28.10
2018-07-30T09:16:41.521Z,28.10
2018-07-30T09:19:10.110Z,28.10
2018-07-30T09:21:38.819Z,28.40
2018-07-30T09:24:07.409Z,28.50
2018-07-30T09:26:36.003Z,28.60
2018-07-30T09:29:04.723Z,28.70
2018-07-30T09:31:33.385Z,28.80
2018-07-30T09:37:36.819Z,28.90
2018-07-30T09:40:05.602Z,29.00
2018-07-30T09:42:34.224Z,29.20
2018-07-30T09:45:02.888Z,29.20
2018-07-30T09:47:32.146Z,29.30
2018-07-30T09:50:00.748Z,29.40
2018-07-30T09:52:29.346Z,29.50
2018-07-30T09:54:57.999Z,29.60
2018-07-30T09:57:26.692Z,29.70
2018-07-30T09:59:55.313Z,29.80
2018-07-30T10:02:24.840Z,29.80
2018-07-30T10:04:53.489Z,29.80
2018-07-30T10:07:22.081Z,29.90
2018-07-30T10:09:50.721Z,30.00
2018-07-30T10:12:19.405Z,30.10
2018-07-30T10:14:48.064Z,30.20
2018-07-30T10:17:16.700Z,30.20
2018-07-30T10:19:45.336Z,30.20
2018-07-30T10:22:14.021Z,30.20
2018-07-30T10:24:42.746Z,30.40
2018-07-30T10:27:11.316Z,30.40
2018-07-30T10:29:39.979Z,30.60
2018-07-30T10:32:08.652Z,30.70
2018-07-30T10:34:37.361Z,30.90
2018-07-30T10:37:06.693Z,31.00
2018-07-30T10:39:35.227Z,31.10
2018-07-30T10:42:03.941Z,31.10
2018-07-30T10:44:32.613Z,31.20
2018-07-30T10:47:01.220Z,31.30
2018-07-30T10:49:29.877Z,31.40
2018-07-30T10:51:58.554Z,31.30
2018-07-30T10:54:27.145Z,31.40
2018-07-30T10:56:55.730Z,31.60
2018-07-30T10:59:24.344Z,31.60
2018-07-30T11:01:52.974Z,31.70
2018-07-30T11:04:21.634Z,31.80
2018-07-30T11:06:50.308Z,31.60
2018-07-30T11:09:18.904Z,31.60
2018-07-30T11:11:47.550Z,31.70
2018-07-30T11:14:16.325Z,31.70
2018-07-30T11:16:45.129Z,31.60
2018-07-30T11:19:13.642Z,31.50
2018-07-30T11:21:43.957Z,31.40
2018-07-30T11:24:12.606Z,31.20
2018-07-30T11:26:41.207Z,31.30
2018-07-30T11:29:09.891Z,31.50
2018-07-30T11:31:38.574Z,31.60
2018-07-30T11:34:07.208Z,31.60
2018-07-30T11:36:35.871Z,31.50
2018-07-30T11:39:06.939Z,31.50
2018-07-30T11:41:35.519Z,31.80
2018-07-30T11:44:04.128Z,32.10
2018-07-30T11:46:32.821Z,32.40
2018-07-30T11:49:01.412Z,32.70
2018-07-30T11:51:30.196Z,32.90
2018-07-30T11:53:58.967Z,33.00
2018-07-30T11:56:27.618Z,32.90
2018-07-30T11:58:56.269Z,33.00
2018-07-30T12:01:25.594Z,33.30
2018-07-30T12:03:54.485Z,33.40
2018-07-30T12:06:23.095Z,33.50
2018-07-30T12:08:51.781Z,33.50
2018-07-30T12:11:20.407Z,33.50
2018-07-30T12:13:49.134Z,33.40
2018-07-30T12:16:17.791Z,33.30
2018-07-30T12:18:46.489Z,33.30
2018-07-30T12:21:15.303Z,33.40
2018-07-30T12:23:45.150Z,33.40
2018-07-30T12:26:13.716Z,33.40
2018-07-30T12:28:42.320Z,33.70
2018-07-30T12:31:11.016Z,33.70
2018-07-30T12:33:39.680Z,33.70
2018-07-30T12:36:08.281Z,33.50
2018-07-30T12:38:37.057Z,33.50
2018-07-30T12:41:05.750Z,33.30
2018-07-30T12:46:03.000Z,32.70
2018-07-30T12:48:31.773Z,32.50
2018-07-30T12:51:00.613Z,32.50
2018-07-30T12:53:29.409Z,32.70
2018-07-30T12:55:58.119Z,33.00
2018-07-30T12:58:27.275Z,33.20
2018-07-30T13:00:55.941Z,33.30
2018-07-30T13:03:24.703Z,33.30
2018-07-30T13:05:53.353Z,33.20
2018-07-30T13:08:22.254Z,33.10
2018-07-30T13:10:50.979Z,33.20
2018-07-30T13:13:19.644Z,33.60
2018-07-30T13:15:48.374Z,33.60
2018-07-30T13:18:16.995Z,33.50
2018-07-30T13:20:45.628Z,33.80
2018-07-30T13:23:14.303Z,34.10
2018-07-30T13:25:43.038Z,34.40
2018-07-30T13:28:12.184Z,34.50
2018-07-30T13:33:09.132Z,34.60
2018-07-30T13:35:37.895Z,34.80
2018-07-30T13:38:07.059Z,34.80
2018-07-30T13:40:35.912Z,34.70
2018-07-30T13:43:04.709Z,34.90
2018-07-30T13:45:33.549Z,35.10
2018-07-30T13:48:02.222Z,35.30
2018-07-30T13:50:31.169Z,35.50
2018-07-30T13:52:59.891Z,35.50
2018-07-30T13:55:28.596Z,35.60
2018-07-30T13:57:57.213Z,35.60
2018-07-30T14:00:25.851Z,35.50
2018-07-30T14:02:54.555Z,35.40
2018-07-30T14:05:23.174Z,35.40
2018-07-30T14:07:52.450Z,35.40
2018-07-30T14:10:21.164Z,35.60
2018-07-30T14:12:49.803Z,35.80
2018-07-30T14:15:18.494Z,35.90
2018-07-30T14:17:47.289Z,35.70
2018-07-30T14:20:16.088Z,35.50
2018-07-30T14:22:44.662Z,35.40
2018-07-30T14:25:13.612Z,35.50
2018-07-30T14:27:42.359Z,35.50
2018-07-30T14:30:11.251Z,35.20
2018-07-30T14:32:39.945Z,35.20
2018-07-30T14:37:36.895Z,35.70
2018-07-30T14:40:12.184Z,36.10
2018-07-30T14:42:41.130Z,36.30
2018-07-30T14:45:09.854Z,36.20
2018-07-30T14:47:38.704Z,35.70
2018-07-30T14:50:08.480Z,35.40
2018-07-30T14:52:37.406Z,35.40
2018-07-30T14:55:07.088Z,35.40
2018-07-30T14:57:35.693Z,35.60
2018-07-30T15:00:05.431Z,35.60
2018-07-30T15:02:34.293Z,35.50
2018-07-30T15:05:02.869Z,35.60
2018-07-30T15:07:31.723Z,35.80
2018-07-30T15:10:00.392Z,36.00
2018-07-30T15:12:29.256Z,36.10
2018-07-30T15:14:58.013Z,35.80
2018-07-30T15:17:27.009Z,35.70
2018-07-30T15:19:55.777Z,35.40
2018-07-30T15:22:24.401Z,35.30
2018-07-30T15:24:53.195Z,35.60
2018-07-30T15:27:21.841Z,35.80
2018-07-30T15:29:50.603Z,35.90
2018-07-30T15:32:19.391Z,35.90
2018-07-30T15:34:48.072Z,36.00
2018-07-30T15:37:17.580Z,35.90
2018-07-30T15:39:46.506Z,35.80
2018-07-30T15:42:15.450Z,35.80
2018-07-30T15:44:44.043Z,35.60
2018-07-30T15:49:41.043Z,36.00
2018-07-30T15:52:09.789Z,36.10
2018-07-30T15:54:38.483Z,35.80
2018-07-30T15:57:07.235Z,35.40
2018-07-30T15:59:35.919Z,35.50
2018-07-30T16:02:05.393Z,35.80
2018-07-30T16:04:34.147Z,35.80
2018-07-30T16:07:03.084Z,35.50
2018-07-30T16:09:31.988Z,34.90
2018-07-30T16:12:00.920Z,34.90
2018-07-30T16:14:29.932Z,35.20
2018-07-30T16:16:58.661Z,35.70
2018-07-30T16:19:27.430Z,35.40
2018-07-30T16:21:56.314Z,35.00
2018-07-30T16:24:24.896Z,34.80
2018-07-30T16:26:53.706Z,34.60
2018-07-30T16:29:22.400Z,34.50
2018-07-30T16:31:51.140Z,34.20
2018-07-30T16:34:19.933Z,33.90
2018-07-30T16:36:48.635Z,33.60
2018-07-30T16:39:17.291Z,33.60
2018-07-30T16:41:46.033Z,33.50
2018-07-30T16:44:15.453Z,33.40
2018-07-30T16:46:44.111Z,33.30
2018-07-30T16:49:12.775Z,33.10
2018-07-30T16:51:42.227Z,33.00
2018-07-30T16:54:10.868Z,32.80
2018-07-30T16:56:39.455Z,32.80
2018-07-30T16:59:08.112Z,32.80
2018-07-30T17:01:36.781Z,32.90
2018-07-30T17:04:05.605Z,32.90
2018-07-30T17:06:34.647Z,33.00
2018-07-30T17:09:03.309Z,33.00
2018-07-30T17:11:31.933Z,33.10
2018-07-30T17:14:00.589Z,33.00
2018-07-30T17:16:29.276Z,33.00
2018-07-30T17:18:57.888Z,32.80
2018-07-30T17:21:26.562Z,32.70
2018-07-30T17:23:55.265Z,32.60
2018-07-30T17:26:24.036Z,32.50
2018-07-30T17:28:52.827Z,32.40
2018-07-30T17:31:21.644Z,32.30
2018-07-30T17:33:50.554Z,32.30
2018-07-30T17:36:19.518Z,32.20
2018-07-30T17:38:48.541Z,32.20
2018-07-30T17:41:17.445Z,32.10
2018-07-30T17:43:46.501Z,32.00
2018-07-30T17:46:15.479Z,31.90
2018-07-30T17:48:44.428Z,31.90
2018-07-30T17:51:13.421Z,31.90
2018-07-30T17:56:10.629Z,31.70
2018-07-30T17:58:39.683Z,31.70
2018-07-30T18:01:08.330Z,31.70
2018-07-30T18:03:37.023Z,31.60
2018-07-30T18:06:05.610Z,31.50
2018-07-30T18:08:34.292Z,31.40
2018-07-30T18:11:03.321Z,31.40
2018-07-30T18:13:32.062Z,31.30
2018-07-30T18:16:00.648Z,31.20
2018-07-30T18:18:29.444Z,31.10
2018-07-30T18:20:58.071Z,31.10
2018-07-30T18:23:26.762Z,31.00
2018-07-30T18:25:55.512Z,30.90
2018-07-30T18:28:24.125Z,30.90
2018-07-30T18:30:52.729Z,30.80
2018-07-30T18:33:21.404Z,30.80
2018-07-30T18:35:50.102Z,30.70
2018-07-30T18:38:19.713Z,30.60
2018-07-30T18:40:48.381Z,30.50
2018-07-30T18:43:17.056Z,30.50
2018-07-30T18:45:45.650Z,30.40
2018-07-30T18:48:14.285Z,30.40
2018-07-30T18:50:42.889Z,30.30
2018-07-30T18:53:11.511Z,30.20
2018-07-30T18:55:40.184Z,30.10
2018-07-30T18:58:08.969Z,30.00
2018-07-30T19:00:37.629Z,30.00
2018-07-30T19:03:06.292Z,30.00
2018-07-30T19:05:35.115Z,30.00
2018-07-30T19:08:03.919Z,29.90
2018-07-30T19:10:32.572Z,29.90
2018-07-30T19:13:01.431Z,29.90
2018-07-30T19:15:30.293Z,29.80
2018-07-30T19:17:58.973Z,29.80
2018-07-30T19:20:27.688Z,29.70
2018-07-30T19:22:56.371Z,29.60
2018-07-30T19:25:25.068Z,29.60
2018-07-30T19:27:53.826Z,29.50
2018-07-30T19:30:23.154Z,29.50
2018-07-30T19:32:52.214Z,29.40
2018-07-30T19:35:20.962Z,29.30
2018-07-30T19:37:49.963Z,29.30
2018-07-30T19:40:19.109Z,29.20
2018-07-30T19:42:48.148Z,29.10
2018-07-30T19:45:17.127Z,29.00
2018-07-30T19:47:45.905Z,28.90
2018-07-30T19:50:14.886Z,28.90
2018-07-30T19:52:43.885Z,28.80
2018-07-30T19:55:12.674Z,28.70
2018-07-30T19:57:41.662Z,28.70
2018-07-30T20:00:10.660Z,28.60
2018-07-30T20:02:39.506Z,28.50
2018-07-30T20:05:08.864Z,28.50
2018-07-30T20:07:37.544Z,28.40
2018-07-30T20:10:06.535Z,28.30
2018-07-30T20:12:35.520Z,28.20
2018-07-30T20:15:04.625Z,28.20
2018-07-30T20:17:33.583Z,28.10
2018-07-30T20:20:02.561Z,27.70
2018-07-30T20:22:31.335Z,27.20
2018-07-30T20:25:00.519Z,26.70
2018-07-30T20:27:29.267Z,26.30
2018-07-30T20:29:58.309Z,26.00
2018-07-30T20:32:27.063Z,25.80
2018-07-30T20:34:56.622Z,25.50
2018-07-30T20:37:25.304Z,25.20
2018-07-30T20:39:53.969Z,24.90
2018-07-30T20:42:22.529Z,24.80
2018-07-30T20:44:51.271Z,24.60
2018-07-30T20:47:20.230Z,24.40
2018-07-30T20:49:48.964Z,24.20
2018-07-30T20:52:17.642Z,24.10
2018-07-30T20:54:46.484Z,24.00
2018-07-30T20:57:15.212Z,24.00
2018-07-30T20:59:44.027Z,23.90
2018-07-30T21:02:12.739Z,23.80
2018-07-30T21:04:41.518Z,23.80
2018-07-30T21:07:10.228Z,23.70
2018-07-30T21:09:38.918Z,23.80
2018-07-30T21:12:07.610Z,23.80
2018-07-30T21:14:36.413Z,23.70
2018-07-30T21:17:05.225Z,23.70
2018-07-30T21:19:33.887Z,23.60
2018-07-30T21:22:02.569Z,23.60
2018-07-30T21:24:31.187Z,23.50
2018-07-30T21:26:59.860Z,23.50
2018-07-30T21:29:28.519Z,23.50
2018-07-30T21:31:57.137Z,23.50
2018-07-30T21:34:25.791Z,23.50
2018-07-30T21:36:54.520Z,23.50
2018-07-30T21:39:24.127Z,23.50
2018-07-30T21:41:52.768Z,23.50
2018-07-30T21:44:21.534Z,23.60
2018-07-30T21:46:50.286Z,23.50
2018-07-30T21:49:18.988Z,23.60
2018-07-30T21:51:47.642Z,23.60
2018-07-30T21:54:16.274Z,23.60
2018-07-30T21:56:44.960Z,23.50
2018-07-30T21:59:13.601Z,23.50
2018-07-30T22:01:42.309Z,23.40
2018-07-30T22:04:10.933Z,23.40
2018-07-30T22:06:39.551Z,23.40
2018-07-30T22:09:09.291Z,23.40
2018-07-30T22:11:37.934Z,23.40
2018-07-30T22:14:06.946Z,23.30
2018-07-30T22:16:35.626Z,23.30
2018-07-30T22:19:04.314Z,23.30
2018-07-30T22:21:32.906Z,23.40
2018-07-30T22:24:01.531Z,23.40
2018-07-30T22:26:30.220Z,23.40
2018-07-30T22:28:58.873Z,23.40
2018-07-30T22:31:27.491Z,23.40
2018-07-30T22:33:56.169Z,23.40
2018-07-30T22:36:24.802Z,23.40
2018-07-30T22:38:53.479Z,23.30
2018-07-30T22:41:22.155Z,23.20
2018-07-30T22:43:50.805Z,23.20
2018-07-30T22:46:19.456Z,23.20
2018-07-30T22:48:48.052Z,23.20
2018-07-30T22:51:16.630Z,23.10
2018-07-30T22:53:45.229Z,23.10
2018-07-30T22:56:13.945Z,23.20
2018-07-30T22:58:42.527Z,23.20
2018-07-30T23:01:11.161Z,23.20
2018-07-30T23:03:39.794Z,23.20
2018-07-30T23:06:08.500Z,23.20
2018-07-30T23:08:37.136Z,23.20
2018-07-30T23:11:05.749Z,23.30
2018-07-30T23:13:34.390Z,23.30
2018-07-30T23:16:03.034Z,23.20
2018-07-30T23:18:31.616Z,23.30
2018-07-30T23:21:00.234Z,23.20
2018-07-30T23:23:28.834Z,23.20
2018-07-30T23:25:57.544Z,23.20
2018-07-30T23:28:26.126Z,23.10
2018-07-30T23:33:23.158Z,23.10
2018-07-30T23:35:51.806Z,23.10
2018-07-30T23:38:20.573Z,23.00
2018-07-30T23:40:49.217Z,23.00
2018-07-30T23:43:17.856Z,23.00
2018-07-30T23:45:46.478Z,22.90
2018-07-30T23:48:15.173Z,22.90
2018-07-30T23:50:43.811Z,22.90
2018-07-30T23:53:12.630Z,22.90
2018-07-30T23:58:09.644Z,23.00
